Time;durP1;ratioP1;P1;durP2;ratioP2;P2;SDS_P1;SDS_P2;PMS_P1;PMS_P2;Temp;Humidity;BMP_temperature;BMP_pressure;BME280_temperature;BME280_humidity;BME280_pressure;Samples;Min_cycle;Max_cycle;Signal;HPM_P1;HPM_P2
2023/08/06 00:00:10;;;;;;;3.13;2.83;;;15.10;1.00;;;;;;6309243;22;20201;-47
2023/08/06 00:02:36;;;;;;;3.20;2.87;;;15.20;1.00;;;;;;6307942;22;20474;-46
2023/08/06 00:05:02;;;;;;;3.13;2.83;;;15.10;1.00;;;;;;6308501;22;20136;-46
2023/08/06 00:07:28;;;;;;;3.17;2.80;;;15.00;1.00;;;;;;6308463;22;20266;-44
2023/08/06 00:09:53;;;;;;;3.53;3.23;;;15.00;1.00;;;;;;6309112;22;20483;-46
2023/08/06 00:12:19;;;;;;;3.67;3.37;;;15.00;1.00;;;;;;6309219;22;20148;-46
2023/08/06 00:14:45;;;;;;;3.30;2.90;;;14.90;1.00;;;;;;6309380;22;20381;-45
2023/08/06 00:17:10;;;;;;;4.00;3.67;;;14.80;1.00;;;;;;6309101;22;20148;-47
2023/08/06 00:19:36;;;;;;;4.13;3.30;;;14.80;1.00;;;;;;6309192;22;20132;-46
2023/08/06 00:22:01;;;;;;;3.50;3.20;;;14.80;1.00;;;;;;6307645;22;20155;-45
2023/08/06 00:24:27;;;;;;;4.07;3.67;;;14.80;1.00;;;;;;6306044;22;20152;-45
2023/08/06 00:26:53;;;;;;;3.90;3.27;;;14.80;1.00;;;;;;6305889;22;20155;-45
2023/08/06 00:29:18;;;;;;;3.67;3.37;;;14.80;1.00;;;;;;6305348;22;20421;-46
2023/08/06 00:31:44;;;;;;;3.07;2.77;;;14.80;1.00;;;;;;6304963;22;20211;-46
2023/08/06 00:34:10;;;;;;;3.40;3.10;;;14.80;1.00;;;;;;6306268;22;20148;-45
2023/08/06 00:36:35;;;;;;;3.40;3.10;;;14.80;1.00;;;;;;6306297;22;20148;-45
2023/08/06 00:39:01;;;;;;;3.47;3.17;;;14.80;1.00;;;;;;6308839;22;20482;-48
2023/08/06 00:41:26;;;;;;;4.37;4.00;;;14.70;1.00;;;;;;6308778;22;20152;-44
2023/08/06 00:43:52;;;;;;;3.57;3.27;;;14.70;1.00;;;;;;6308558;22;20531;-47
2023/08/06 00:46:17;;;;;;;3.83;3.47;;;14.60;1.00;;;;;;6305825;22;20211;-45
2023/08/06 00:48:43;;;;;;;3.63;3.33;;;14.70;1.00;;;;;;6279914;22;20187;-43
2023/08/06 00:51:11;;;;;;;5.20;3.20;;;14.70;1.00;;;;;;6279890;22;20223;-44
2023/08/06 00:53:38;;;;;;;3.10;2.80;;;14.70;1.00;;;;;;6306074;22;20538;-46
2023/08/06 00:56:03;;;;;;;4.00;3.70;;;14.70;1.00;;;;;;6306591;22;20378;-45
2023/08/06 00:58:29;;;;;;;3.80;3.40;;;14.70;1.00;;;;;;6305840;22;20366;-47
2023/08/06 01:00:55;;;;;;;5.37;4.03;;;14.70;1.00;;;;;;6305208;22;20231;-47
2023/08/06 01:03:20;;;;;;;3.47;3.17;;;14.60;1.00;;;;;;6306211;22;20175;-47
2023/08/06 01:05:46;;;;;;;4.43;4.03;;;14.60;1.00;;;;;;6306639;22;20148;-46
2023/08/06 01:08:11;;;;;;;4.30;3.90;;;14.60;1.00;;;;;;6305542;22;20272;-47
2023/08/06 01:10:44;;;;;;;4.37;3.97;;;14.60;1.00;;;;;;6306742;22;20125;-45
2023/08/06 01:13:35;;;;;;;4.00;3.70;;;14.50;7.90;;;;;;6279163;22;20148;-44
2023/08/06 01:16:02;;;;;;;4.90;4.50;;;14.40;66.20;;;;;;6305437;22;20378;-45
2023/08/06 01:18:27;;;;;;;6.83;3.60;;;14.40;93.70;;;;;;6279400;22;20925;-44
2023/08/06 01:20:53;;;;;;;4.43;3.60;;;14.40;99.90;;;;;;6304305;22;20406;-44
2023/08/06 01:23:19;;;;;;;5.07;4.27;;;14.30;99.90;;;;;;6306021;22;20241;-45
2023/08/06 01:26:05;;;;;;;4.63;4.23;;;14.20;99.90;;;;;;6277547;22;20151;-45
2023/08/06 01:28:52;;;;;;;4.23;3.70;;;14.20;99.90;;;;;;6305394;22;20941;-46
2023/08/06 01:31:38;;;;;;;3.90;3.50;;;14.20;99.90;;;;;;6278776;22;20408;-46
2023/08/06 01:34:06;;;;;;;5.30;4.80;;;14.20;99.90;;;;;;6306014;22;20785;-44
2023/08/06 01:36:31;;;;;;;3.70;3.40;;;14.10;99.90;;;;;;6305258;22;20389;-46
2023/08/06 01:38:57;;;;;;;5.40;3.50;;;14.00;99.90;;;;;;6279620;22;20680;-47
2023/08/06 01:41:23;;;;;;;4.20;3.80;;;13.90;99.90;;;;;;6307522;22;20179;-46
2023/08/06 01:43:48;;;;;;;5.37;4.37;;;13.90;99.90;;;;;;6306523;22;20132;-45
2023/08/06 01:46:14;;;;;;;5.67;4.00;;;13.90;99.90;;;;;;6305663;22;20142;-47
2023/08/06 01:48:40;;;;;;;4.87;3.87;;;13.90;99.90;;;;;;6278334;22;20567;-46
2023/08/06 01:51:06;;;;;;;4.50;4.10;;;13.90;99.90;;;;;;6304993;22;20148;-44
2023/08/06 01:53:32;;;;;;;3.90;3.60;;;13.90;99.90;;;;;;6305365;22;20159;-45
2023/08/06 01:55:57;;;;;;;5.10;3.83;;;13.80;99.90;;;;;;6306114;22;20346;-48
2023/08/06 01:58:23;;;;;;;4.97;3.90;;;13.70;99.90;;;;;;6306089;22;20358;-47
2023/08/06 02:00:49;;;;;;;5.57;4.40;;;13.60;99.90;;;;;;6307789;22;20179;-47
2023/08/06 02:03:17;;;;;;;5.07;4.50;;;13.60;99.90;;;;;;6307547;22;20201;-46
2023/08/06 02:05:43;;;;;;;4.07;3.73;;;13.60;99.90;;;;;;6308152;22;20181;-46
2023/08/06 02:08:08;;;;;;;5.77;3.97;;;13.50;99.90;;;;;;6306861;22;20436;-49
2023/08/06 02:10:34;;;;;;;4.07;3.77;;;13.50;99.90;;;;;;6307887;22;20135;-46
2023/08/06 02:13:00;;;;;;;4.00;3.70;;;13.50;99.90;;;;;;6309275;22;20197;-47
2023/08/06 02:15:25;;;;;;;4.97;4.27;;;13.50;99.90;;;;;;6306430;22;20152;-46
2023/08/06 02:17:51;;;;;;;4.00;3.60;;;13.50;99.90;;;;;;6307665;22;20155;-44
2023/08/06 02:20:17;;;;;;;4.17;3.77;;;13.50;99.90;;;;;;6307875;22;20173;-48
2023/08/06 02:22:42;;;;;;;4.03;3.70;;;13.40;99.90;;;;;;6309460;22;20136;-46
2023/08/06 02:25:08;;;;;;;4.20;3.80;;;13.50;99.90;;;;;;6309000;22;20226;-44
2023/08/06 02:27:34;;;;;;;3.90;3.50;;;13.50;99.90;;;;;;6306411;22;20397;-47
2023/08/06 02:30:05;;;;;;;4.00;3.60;;;13.40;99.90;;;;;;6280395;22;20282;-46
2023/08/06 02:32:32;;;;;;;4.07;3.50;;;13.40;99.90;;;;;;6307639;22;20214;-47
2023/08/06 02:34:58;;;;;;;4.33;3.50;;;13.40;99.90;;;;;;6282957;22;20459;-46
2023/08/06 02:37:23;;;;;;;4.07;3.27;;;13.40;99.90;;;;;;6282616;22;20386;-46
2023/08/06 02:39:49;;;;;;;4.07;3.20;;;13.40;99.90;;;;;;6307910;22;20495;-48
2023/08/06 02:42:16;;;;;;;5.83;3.63;;;13.40;99.90;;;;;;6310211;22;20457;-46
2023/08/06 02:44:42;;;;;;;3.90;3.20;;;13.40;99.90;;;;;;6310800;22;20148;-47
2023/08/06 02:47:08;;;;;;;4.40;2.90;;;13.50;99.90;;;;;;6311270;22;20532;-46
2023/08/06 02:49:34;;;;;;;6.03;3.50;;;13.50;99.90;;;;;;6310509;22;20248;-44
2023/08/06 02:52:00;;;;;;;3.87;2.80;;;13.40;99.90;;;;;;6308900;22;20147;-45
2023/08/06 02:54:27;;;;;;;4.00;3.53;;;13.50;99.90;;;;;;6310426;22;20148;-46
2023/08/06 02:56:54;;;;;;;4.60;3.50;;;13.50;99.90;;;;;;6310765;22;20382;-49
2023/08/06 02:59:19;;;;;;;3.33;2.93;;;13.50;99.90;;;;;;6309326;22;20470;-46
2023/08/06 03:01:45;;;;;;;3.87;2.70;;;13.50;99.90;;;;;;6308395;22;20382;-44
2023/08/06 03:04:11;;;;;;;5.23;3.83;;;13.50;99.90;;;;;;6310717;22;20415;-44
2023/08/06 03:06:36;;;;;;;5.30;3.73;;;13.50;99.90;;;;;;6309580;22;20540;-45
2023/08/06 03:09:02;;;;;;;4.10;3.10;;;13.50;99.90;;;;;;6277780;22;20205;-44
2023/08/06 03:11:27;;;;;;;4.30;3.13;;;13.50;99.90;;;;;;6279523;22;20141;-43
2023/08/06 03:13:53;;;;;;;2.80;2.50;;;13.60;99.90;;;;;;6277586;22;20244;-43
2023/08/06 03:16:19;;;;;;;4.83;4.30;;;13.60;99.90;;;;;;6277602;22;20180;-45
2023/08/06 03:18:44;;;;;;;3.10;2.80;;;13.60;99.90;;;;;;6277513;22;20454;-44
2023/08/06 03:21:10;;;;;;;4.10;3.10;;;13.70;93.00;;;;;;6276427;22;20567;-46
2023/08/06 03:23:35;;;;;;;4.50;3.30;;;13.70;81.90;;;;;;6279183;22;20215;-44
2023/08/06 03:26:02;;;;;;;3.20;2.63;;;13.70;77.90;;;;;;6278141;22;20210;-46
2023/08/06 03:28:28;;;;;;;6.70;3.50;;;13.80;62.10;;;;;;6278690;22;20244;-45
2023/08/06 03:31:01;;;;;;;3.33;2.63;;;13.80;76.40;;;;;;6278733;22;20685;-47
2023/08/06 03:33:26;;;;;;;2.83;2.63;;;13.80;76.90;;;;;;6277240;22;20172;-45
2023/08/06 03:35:52;;;;;;;3.30;2.87;;;13.80;31.50;;;;;;6277116;22;20784;-46
2023/08/06 03:38:18;;;;;;;4.03;3.60;;;13.80;29.40;;;;;;6278435;22;20154;-47
2023/08/06 03:40:44;;;;;;;4.13;2.47;;;13.80;39.60;;;;;;6250384;22;20516;-46
2023/08/06 03:43:09;;;;;;;3.27;2.80;;;13.80;37.70;;;;;;6278451;22;20386;-44
2023/08/06 03:45:35;;;;;;;2.97;2.67;;;13.80;51.90;;;;;;6276680;22;20491;-45
2023/08/06 03:48:00;;;;;;;3.90;3.50;;;13.80;42.80;;;;;;6278735;22;20137;-42
2023/08/06 03:50:26;;;;;;;4.13;2.20;;;13.80;57.30;;;;;;6278466;22;20164;-45
2023/08/06 03:52:51;;;;;;;4.60;3.00;;;13.80;51.80;;;;;;6278251;22;20148;-43
2023/08/06 03:55:17;;;;;;;3.20;2.43;;;13.80;76.80;;;;;;6278564;22;20228;-43
2023/08/06 03:57:43;;;;;;;3.83;2.40;;;13.80;81.80;;;;;;6277618;22;20144;-46
2023/08/06 04:00:09;;;;;;;4.37;2.47;;;13.80;95.50;;;;;;6276673;22;20152;-43
2023/08/06 04:02:34;;;;;;;5.83;2.90;;;13.80;99.90;;;;;;6277696;22;20227;-45
2023/08/06 04:05:01;;;;;;;2.67;2.33;;;13.80;99.90;;;;;;6277933;22;20406;-45
2023/08/06 04:07:26;;;;;;;4.50;2.40;;;13.80;99.90;;;;;;6286374;22;20191;-43
2023/08/06 04:09:59;;;;;;;4.47;2.50;;;13.80;99.90;;;;;;6309781;22;20433;-47
2023/08/06 04:12:25;;;;;;;4.60;2.70;;;13.80;99.90;;;;;;6309515;22;20152;-45
2023/08/06 04:14:52;;;;;;;3.87;2.50;;;13.80;99.90;;;;;;6280921;22;20410;-44
2023/08/06 04:17:20;;;;;;;4.30;2.77;;;13.80;99.90;;;;;;6309103;22;20801;-43
2023/08/06 04:19:49;;;;;;;3.80;2.20;;;13.70;99.90;;;;;;6309589;22;20386;-43
2023/08/06 04:22:15;;;;;;;3.10;2.80;;;13.70;99.90;;;;;;6308552;22;20809;-44
2023/08/06 04:24:41;;;;;;;4.00;2.87;;;13.70;99.90;;;;;;6306695;22;20677;-43
2023/08/06 04:27:08;;;;;;;4.43;2.30;;;13.70;99.90;;;;;;6306217;22;20424;-43
2023/08/06 04:29:33;;;;;;;3.57;2.20;;;13.70;99.90;;;;;;6306172;22;20505;-44
2023/08/06 04:31:59;;;;;;;3.13;2.33;;;13.70;99.90;;;;;;6306117;22;20390;-44
2023/08/06 04:34:25;;;;;;;7.00;2.50;;;13.70;99.90;;;;;;6307081;22;20148;-43
2023/08/06 04:36:50;;;;;;;2.87;1.93;;;13.70;99.90;;;;;;6304672;22;20148;-45
2023/08/06 04:39:16;;;;;;;2.80;1.50;;;13.70;99.90;;;;;;6307370;22;20151;-44
2023/08/06 04:41:41;;;;;;;4.90;1.93;;;13.70;99.90;;;;;;6280903;22;20132;-44
2023/08/06 04:44:07;;;;;;;4.07;1.53;;;13.80;99.90;;;;;;6308071;22;20217;-42
2023/08/06 04:46:32;;;;;;;3.30;1.70;;;13.70;99.90;;;;;;6308216;22;20162;-46
2023/08/06 04:48:58;;;;;;;3.63;2.43;;;13.80;99.90;;;;;;6307437;22;20531;-47
2023/08/06 04:51:23;;;;;;;3.43;1.70;;;13.80;99.90;;;;;;6309398;22;20148;-43
2023/08/06 04:53:49;;;;;;;4.40;1.50;;;13.80;99.90;;;;;;6306788;22;20280;-44
2023/08/06 04:56:15;;;;;;;2.00;1.37;;;13.80;99.90;;;;;;6307930;22;20146;-47
2023/08/06 04:58:41;;;;;;;3.30;1.50;;;13.80;99.90;;;;;;6309179;22;20404;-46
2023/08/06 05:01:06;;;;;;;2.30;1.20;;;13.80;99.90;;;;;;6308617;22;20155;-44
2023/08/06 05:03:32;;;;;;;4.53;1.70;;;13.80;99.90;;;;;;6306713;22;20429;-44
2023/08/06 05:05:58;;;;;;;4.43;1.40;;;13.80;99.90;;;;;;6306976;22;20132;-44
2023/08/06 05:08:23;;;;;;;2.53;1.20;;;13.90;99.90;;;;;;6308173;22;20559;-45
2023/08/06 05:10:49;;;;;;;2.63;1.20;;;14.00;99.90;;;;;;6308907;22;20148;-46
2023/08/06 05:13:14;;;;;;;1.60;1.10;;;14.00;99.90;;;;;;6308344;22;20148;-46
2023/08/06 05:15:42;;;;;;;2.23;1.10;;;14.00;99.90;;;;;;6308154;22;20337;-46
2023/08/06 05:18:08;;;;;;;1.30;1.03;;;14.10;99.90;;;;;;6307904;22;20487;-47
2023/08/06 05:20:38;;;;;;;1.67;1.10;;;14.10;99.90;;;;;;6307810;22;20414;-45
2023/08/06 05:23:03;;;;;;;2.40;1.03;;;14.10;99.90;;;;;;6307706;22;20378;-44
2023/08/06 05:25:29;;;;;;;1.47;0.90;;;14.30;55.70;;;;;;6308587;22;20619;-44
2023/08/06 05:27:55;;;;;;;1.50;0.90;;;14.40;1.00;;;;;;6306596;22;20152;-48
2023/08/06 05:30:20;;;;;;;3.40;1.23;;;14.40;1.00;;;;;;6308383;22;20685;-44
2023/08/06 05:32:46;;;;;;;1.87;0.80;;;14.40;1.00;;;;;;6308338;22;20277;-46
2023/08/06 05:35:12;;;;;;;2.93;1.03;;;14.40;1.00;;;;;;6281003;22;20147;-50
2023/08/06 05:37:37;;;;;;;2.10;0.90;;;14.40;1.00;;;;;;6280158;22;20175;-47
2023/08/06 05:40:04;;;;;;;2.03;1.00;;;14.50;1.00;;;;;;6307816;22;20294;-47
2023/08/06 05:42:29;;;;;;;3.00;1.23;;;14.60;1.00;;;;;;6307638;22;20548;-48
2023/08/06 05:44:55;;;;;;;3.90;1.00;;;14.60;1.00;;;;;;6280545;22;20359;-44
2023/08/06 05:47:21;;;;;;;5.10;1.40;;;14.60;1.00;;;;;;6307902;22;20370;-47
2023/08/06 05:49:46;;;;;;;2.40;0.93;;;14.60;1.00;;;;;;6307831;22;20535;-45
2023/08/06 05:52:12;;;;;;;1.50;1.00;;;14.40;1.00;;;;;;6307818;22;20296;-45
2023/08/06 05:54:37;;;;;;;1.77;1.00;;;14.50;1.00;;;;;;6306566;22;20166;-45
2023/08/06 05:57:04;;;;;;;2.17;1.30;;;14.40;1.00;;;;;;6308894;22;20159;-45
2023/08/06 05:59:29;;;;;;;3.30;1.10;;;14.40;1.00;;;;;;6281477;22;20408;-43
2023/08/06 06:01:55;;;;;;;2.83;1.03;;;14.40;1.00;;;;;;6279735;22;20387;-43
2023/08/06 06:04:22;;;;;;;1.90;1.03;;;14.40;1.00;;;;;;6305410;22;20258;-44
2023/08/06 06:06:47;;;;;;;2.40;1.00;;;14.40;1.00;;;;;;6278443;22;20156;-48
2023/08/06 06:09:13;;;;;;;1.30;0.83;;;14.40;1.00;;;;;;6305266;22;20524;-45
2023/08/06 06:11:39;;;;;;;2.60;1.10;;;14.40;1.00;;;;;;6306958;22;20423;-47
2023/08/06 06:14:04;;;;;;;7.90;1.40;;;14.50;18.80;;;;;;6307721;22;20168;-46
2023/08/06 06:16:30;;;;;;;2.80;1.50;;;14.50;99.90;;;;;;6305415;22;20422;-46
2023/08/06 06:18:57;;;;;;;1.70;1.13;;;14.60;52.40;;;;;;6305876;22;20339;-44
2023/08/06 06:21:23;;;;;;;3.20;1.17;;;14.60;27.30;;;;;;6302797;22;20209;-46
2023/08/06 06:23:49;;;;;;;1.90;1.00;;;14.60;52.40;;;;;;6303285;22;20367;-45
2023/08/06 06:26:14;;;;;;;2.43;1.10;;;14.50;38.90;;;;;;6277568;22;20374;-44
2023/08/06 06:28:40;;;;;;;1.20;0.80;;;14.50;99.90;;;;;;6305904;22;20175;-46
2023/08/06 06:31:05;;;;;;;2.60;0.90;;;14.60;99.90;;;;;;6278782;22;20160;-45
2023/08/06 06:33:31;;;;;;;2.23;1.00;;;14.70;89.50;;;;;;6305222;22;20179;-46
2023/08/06 06:35:57;;;;;;;2.70;1.20;;;14.70;52.50;;;;;;6306264;22;20211;-44
2023/08/06 06:38:22;;;;;;;2.70;1.00;;;14.70;19.30;;;;;;6306619;22;20133;-46
2023/08/06 06:40:57;;;;;;;1.40;0.80;;;14.70;1.00;;;;;;6279597;22;20148;-43
2023/08/06 06:43:24;;;;;;;3.37;1.10;;;14.60;8.10;;;;;;6306813;22;20555;-45
2023/08/06 06:45:59;;;;;;;7.27;1.10;;;14.60;35.60;;;;;;6306561;22;20750;-44
2023/08/06 06:48:32;;;;;;;2.47;1.00;;;14.60;73.50;;;;;;6306715;22;20386;-46
2023/08/06 06:50:58;;;;;;;2.97;1.13;;;14.60;99.90;;;;;;6307121;22;20355;-46
2023/08/06 06:53:30;;;;;;;2.20;1.00;;;14.60;99.90;;;;;;6306568;22;20801;-48
2023/08/06 06:56:00;;;;;;;3.03;1.07;;;14.50;99.90;;;;;;6307301;22;20148;-45
2023/08/06 06:58:26;;;;;;;1.30;0.83;;;14.40;99.90;;;;;;6307871;22;20429;-46
2023/08/06 07:00:51;;;;;;;1.20;0.90;;;14.30;99.90;;;;;;6304917;22;20389;-45
2023/08/06 07:03:18;;;;;;;1.20;0.60;;;14.20;99.90;;;;;;6303747;22;20148;-44
2023/08/06 07:05:44;;;;;;;1.83;0.87;;;14.10;99.90;;;;;;6277568;22;20162;-46
2023/08/06 07:08:10;;;;;;;1.77;0.80;;;14.10;99.90;;;;;;6305778;22;20422;-44
2023/08/06 07:10:35;;;;;;;2.10;0.90;;;14.10;99.90;;;;;;6305883;22;20879;-46
2023/08/06 07:13:01;;;;;;;1.10;0.60;;;14.20;99.90;;;;;;6304441;22;20365;-45
2023/08/06 07:15:26;;;;;;;1.00;0.57;;;14.20;99.90;;;;;;6279075;22;20156;-45
2023/08/06 07:17:52;;;;;;;1.00;0.60;;;14.40;99.90;;;;;;6307854;22;20172;-45
2023/08/06 07:20:17;;;;;;;1.00;0.50;;;14.40;99.90;;;;;;6310298;22;20176;-55
2023/08/06 07:22:44;;;;;;;2.70;0.50;;;14.20;99.90;;;;;;6308736;22;20206;-44
2023/08/06 07:25:10;;;;;;;1.10;0.50;;;14.10;99.90;;;;;;6255190;22;20160;-44
2023/08/06 07:27:35;;;;;;;2.10;0.90;;;14.00;99.90;;;;;;6308289;22;20803;-43
2023/08/06 07:30:01;;;;;;;0.90;0.60;;;13.90;99.90;;;;;;6307955;22;20159;-43
2023/08/06 07:32:27;;;;;;;2.40;0.70;;;13.90;99.90;;;;;;6308221;22;20147;-47
2023/08/06 07:35:00;;;;;;;1.00;0.50;;;14.00;99.90;;;;;;6281943;22;20156;-47
2023/08/06 07:37:29;;;;;;;0.90;0.40;;;14.10;99.90;;;;;;6282233;22;20801;-43
2023/08/06 07:39:55;;;;;;;0.90;0.50;;;13.90;99.90;;;;;;6310038;22;20389;-46
2023/08/06 07:42:22;;;;;;;1.90;0.40;;;14.00;99.90;;;;;;6311278;22;20792;-45
2023/08/06 07:44:54;;;;;;;0.77;0.30;;;14.00;99.90;;;;;;6309662;22;20388;-46
2023/08/06 07:47:20;;;;;;;0.87;0.30;;;13.90;99.90;;;;;;6282513;22;20761;-45
2023/08/06 07:49:46;;;;;;;0.87;0.33;;;13.90;99.90;;;;;;6281063;22;20529;-54
2023/08/06 07:52:11;;;;;;;1.23;0.40;;;13.90;99.90;;;;;;6310134;22;20158;-46
2023/08/06 07:54:37;;;;;;;0.77;0.30;;;13.80;1.00;;;;;;6308481;22;20168;-45
2023/08/06 07:57:03;;;;;;;1.10;0.40;;;14.00;1.00;;;;;;6309882;22;20361;-45
2023/08/06 07:59:28;;;;;;;1.10;0.47;;;14.30;99.90;;;;;;6309090;22;20140;-46
2023/08/06 08:01:54;;;;;;;1.33;0.30;;;14.40;99.90;;;;;;6308750;22;20382;-45
2023/08/06 08:04:20;;;;;;;1.83;0.33;;;14.70;99.90;;;;;;6308408;22;20225;-45
2023/08/06 08:06:47;;;;;;;0.90;0.30;;;15.10;99.90;;;;;;6308065;22;20162;-44
2023/08/06 08:09:13;;;;;;;1.10;0.40;;;15.10;91.90;;;;;;6308454;22;20531;-46
2023/08/06 08:11:40;;;;;;;1.30;0.97;;;15.30;99.90;;;;;;6308432;22;20354;-46
2023/08/06 08:14:06;;;;;;;0.80;0.37;;;15.30;99.90;;;;;;6308776;22;20407;-44
2023/08/06 08:16:34;;;;;;;1.60;0.30;;;15.20;99.90;;;;;;6306481;22;20424;-44
2023/08/06 08:19:03;;;;;;;1.03;0.73;;;15.20;99.90;;;;;;6282312;22;20162;-45
2023/08/06 08:21:28;;;;;;;2.00;0.30;;;15.10;54.70;;;;;;6280689;22;20398;-43
2023/08/06 08:23:54;;;;;;;0.80;0.40;;;14.90;99.90;;;;;;6279582;22;20769;-45
2023/08/06 08:26:19;;;;;;;1.83;0.50;;;15.00;99.90;;;;;;6307293;22;20132;-44
2023/08/06 08:28:48;;;;;;;0.80;0.40;;;15.10;99.90;;;;;;6278745;22;20171;-45
2023/08/06 08:31:16;;;;;;;0.80;0.30;;;15.00;99.90;;;;;;6281145;22;20148;-44
2023/08/06 08:33:43;;;;;;;0.70;0.30;;;15.00;99.90;;;;;;6306006;22;20382;-45
2023/08/06 08:36:11;;;;;;;0.70;0.30;;;14.90;99.90;;;;;;6306688;22;20386;-44
2023/08/06 08:38:36;;;;;;;0.70;0.20;;;14.90;99.90;;;;;;6306355;22;20354;-43
2023/08/06 08:41:02;;;;;;;0.70;0.37;;;14.90;99.90;;;;;;6279179;22;20898;-44
2023/08/06 08:43:29;;;;;;;0.90;0.30;;;15.10;99.90;;;;;;6308016;22;20162;-46
2023/08/06 08:45:55;;;;;;;0.60;0.20;;;15.30;99.90;;;;;;6280846;22;20523;-44
2023/08/06 08:48:21;;;;;;;0.70;0.27;;;15.40;99.90;;;;;;6308412;22;20381;-43
2023/08/06 08:50:49;;;;;;;0.70;0.30;;;15.20;99.90;;;;;;6278940;22;20371;-44
2023/08/06 08:53:16;;;;;;;1.00;0.30;;;15.20;79.30;;;;;;6279597;22;20394;-44
2023/08/06 08:55:44;;;;;;;0.70;0.30;;;15.30;99.90;;;;;;6279374;22;20618;-45
2023/08/06 08:58:10;;;;;;;1.00;0.30;;;15.50;99.90;;;;;;6306535;22;20390;-45
2023/08/06 09:00:36;;;;;;;1.20;0.40;;;15.60;1.00;;;;;;6302791;22;20387;-43
2023/08/06 09:03:02;;;;;;;1.73;0.37;;;15.70;74.20;;;;;;6304526;22;20374;-45
2023/08/06 09:05:30;;;;;;;0.60;0.20;;;15.90;1.00;;;;;;6277052;22;20365;-44
2023/08/06 09:08:04;;;;;;;0.83;0.30;;;15.90;1.00;;;;;;6305748;22;20461;-44
2023/08/06 09:10:30;;;;;;;0.80;0.30;;;16.20;1.00;;;;;;6305442;22;20461;-45
2023/08/06 09:12:57;;;;;;;0.90;0.30;;;16.40;1.00;;;;;;6304080;22;20788;-46
2023/08/06 09:15:26;;;;;;;0.80;0.30;;;16.50;99.90;;;;;;6304611;22;20588;-44
2023/08/06 09:17:53;;;;;;;0.70;0.30;;;16.60;99.90;;;;;;6305561;22;20358;-44
2023/08/06 09:20:19;;;;;;;0.80;0.30;;;16.60;99.90;;;;;;6304839;22;20365;-45
2023/08/06 09:22:45;;;;;;;1.20;0.50;;;16.60;1.00;;;;;;6307271;22;20386;-47
2023/08/06 09:25:13;;;;;;;0.80;0.27;;;16.90;1.00;;;;;;6307049;22;20268;-43
2023/08/06 09:27:39;;;;;;;0.80;0.30;;;17.00;1.00;;;;;;6305795;22;20435;-46
2023/08/06 09:30:07;;;;;;;0.80;0.30;;;16.90;99.90;;;;;;6305338;22;20406;-44
2023/08/06 09:32:52;;;;;;;0.90;0.30;;;17.00;99.90;;;;;;6304315;22;20392;-46
2023/08/06 09:35:18;;;;;;;1.43;0.37;;;16.60;99.90;;;;;;6304340;22;20485;-43
2023/08/06 09:37:45;;;;;;;0.80;0.30;;;16.30;1.00;;;;;;6306432;22;20375;-43
2023/08/06 09:40:32;;;;;;;1.53;0.40;;;16.20;1.00;;;;;;6305624;22;20505;-45
2023/08/06 09:42:59;;;;;;;0.70;0.30;;;16.10;1.00;;;;;;6276675;22;20386;-44
2023/08/06 09:45:35;;;;;;;0.70;0.30;;;16.20;3.60;;;;;;6305495;22;20410;-44
2023/08/06 09:48:09;;;;;;;0.80;0.30;;;16.10;1.00;;;;;;6306689;22;20608;-44
2023/08/06 09:50:36;;;;;;;0.87;0.30;;;16.00;1.00;;;;;;6307334;22;20402;-44
2023/08/06 09:53:06;;;;;;;0.80;0.40;;;15.90;1.00;;;;;;6307215;22;20374;-44
2023/08/06 09:55:32;;;;;;;3.17;0.40;;;15.90;20.60;;;;;;6306889;22;20387;-44
2023/08/06 09:57:59;;;;;;;1.90;0.40;;;15.80;40.70;;;;;;6307765;22;20394;-45
2023/08/06 10:00:25;;;;;;;1.87;0.50;;;15.80;6.00;;;;;;6305441;22;20405;-44
2023/08/06 10:02:56;;;;;;;1.33;0.43;;;15.70;99.90;;;;;;6306290;22;20359;-45
2023/08/06 10:05:22;;;;;;;2.20;0.40;;;15.70;43.10;;;;;;6279785;22;20375;-46
2023/08/06 10:07:50;;;;;;;1.13;0.50;;;15.70;51.60;;;;;;6274334;22;20861;-46
2023/08/06 10:10:17;;;;;;;1.13;0.47;;;15.70;99.90;;;;;;6274582;22;20707;-47
2023/08/06 10:12:48;;;;;;;1.20;0.47;;;15.50;99.90;;;;;;6275495;22;20440;-44
2023/08/06 10:15:16;;;;;;;1.73;0.60;;;15.40;99.90;;;;;;6277188;22;20421;-46
2023/08/06 10:17:44;;;;;;;1.03;0.50;;;15.20;99.90;;;;;;6277649;22;20427;-45
2023/08/06 10:20:10;;;;;;;0.93;0.43;;;15.30;99.90;;;;;;6251500;22;20556;-44
2023/08/06 10:22:36;;;;;;;1.10;0.40;;;15.30;99.90;;;;;;6275778;22;20761;-45
2023/08/06 10:25:05;;;;;;;1.37;0.40;;;15.30;99.90;;;;;;6276387;22;20426;-45
2023/08/06 10:27:53;;;;;;;1.37;0.40;;;15.20;99.90;;;;;;6276577;22;20162;-44
2023/08/06 10:30:33;;;;;;;1.40;0.40;;;15.20;99.90;;;;;;6274316;22;20439;-45
2023/08/06 10:33:03;;;;;;;1.13;0.67;;;15.30;99.90;;;;;;6275477;22;20414;-45
2023/08/06 10:35:45;;;;;;;1.43;0.43;;;15.20;99.90;;;;;;6274986;22;20355;-45
2023/08/06 10:38:18;;;;;;;0.80;0.40;;;15.20;99.90;;;;;;6274170;22;20367;-49
2023/08/06 10:41:04;;;;;;;1.43;0.40;;;15.20;99.90;;;;;;6274489;22;20383;-44
2023/08/06 10:43:34;;;;;;;1.00;0.50;;;15.00;99.90;;;;;;6274366;22;20782;-47
2023/08/06 10:46:06;;;;;;;0.90;0.40;;;14.90;99.90;;;;;;6275903;22;20458;-45
2023/08/06 10:48:41;;;;;;;0.87;0.33;;;14.70;99.90;;;;;;6274897;22;20664;-45
2023/08/06 10:51:11;;;;;;;1.13;0.50;;;14.70;99.90;;;;;;6271635;22;20696;-46
2023/08/06 10:53:37;;;;;;;1.80;0.60;;;14.80;1.00;;;;;;6272968;22;20454;-46
2023/08/06 10:56:13;;;;;;;1.17;0.50;;;14.80;1.00;;;;;;6272701;22;20407;-45
2023/08/06 10:58:42;;;;;;;1.00;0.40;;;14.90;99.90;;;;;;6273999;22;21027;-45
2023/08/06 11:01:08;;;;;;;0.93;0.40;;;15.00;99.90;;;;;;6272483;22;20399;-46
2023/08/06 11:03:34;;;;;;;1.17;0.40;;;15.00;99.90;;;;;;6276084;22;20375;-44
2023/08/06 11:06:00;;;;;;;1.33;0.40;;;15.00;99.90;;;;;;6275269;22;20368;-45
2023/08/06 11:08:27;;;;;;;0.90;0.30;;;15.10;99.90;;;;;;6297634;22;20487;-46
2023/08/06 11:10:53;;;;;;;1.20;0.30;;;15.20;99.90;;;;;;6306959;22;20402;-45
2023/08/06 11:13:19;;;;;;;1.00;0.40;;;15.10;99.90;;;;;;6305636;22;20388;-46
2023/08/06 11:15:45;;;;;;;1.53;0.40;;;15.20;99.90;;;;;;6281417;22;20413;-46
2023/08/06 11:18:11;;;;;;;0.80;0.40;;;15.10;99.90;;;;;;6306986;22;20437;-43
2023/08/06 11:20:37;;;;;;;1.00;0.60;;;15.00;99.90;;;;;;6278679;22;20466;-44
2023/08/06 11:23:03;;;;;;;1.00;0.50;;;14.90;1.00;;;;;;6304650;22;20774;-43
2023/08/06 11:25:29;;;;;;;1.23;0.67;;;15.10;94.20;;;;;;6305242;22;20863;-44
2023/08/06 11:27:54;;;;;;;1.50;0.60;;;15.30;61.60;;;;;;6304117;22;20422;-43
2023/08/06 11:30:20;;;;;;;1.07;0.60;;;15.40;1.00;;;;;;6303438;22;20583;-47
2023/08/06 11:32:49;;;;;;;1.50;0.70;;;15.40;1.00;;;;;;6303979;22;20534;-45
2023/08/06 11:35:15;;;;;;;1.10;0.67;;;15.30;1.00;;;;;;6306024;22;20243;-44
2023/08/06 11:37:45;;;;;;;1.60;0.90;;;15.40;1.00;;;;;;6307305;22;20363;-44
2023/08/06 11:40:11;;;;;;;1.63;0.63;;;15.40;99.90;;;;;;6304884;22;20497;-44
2023/08/06 11:42:37;;;;;;;1.17;0.70;;;15.30;1.00;;;;;;6277999;22;20992;-44
2023/08/06 11:45:04;;;;;;;1.00;0.60;;;15.20;99.90;;;;;;6306324;22;20764;-45
2023/08/06 11:47:30;;;;;;;1.30;0.90;;;15.10;1.00;;;;;;6306350;22;20378;-47
2023/08/06 11:49:55;;;;;;;1.20;0.70;;;15.00;1.00;;;;;;6278572;22;20508;-45
2023/08/06 11:52:23;;;;;;;1.50;0.97;;;15.00;1.00;;;;;;6306678;22;20155;-45
2023/08/06 11:55:10;;;;;;;1.33;0.70;;;15.20;1.00;;;;;;6281438;22;20151;-45
2023/08/06 11:57:39;;;;;;;1.60;1.03;;;15.40;99.90;;;;;;6307722;22;20394;-44
2023/08/06 12:00:09;;;;;;;1.90;1.00;;;15.50;99.90;;;;;;6307054;22;20346;-48
2023/08/06 12:02:36;;;;;;;1.10;0.70;;;15.40;99.90;;;;;;6308634;22;20367;-46
2023/08/06 12:05:23;;;;;;;1.10;0.80;;;15.30;99.90;;;;;;6280852;22;20471;-45
2023/08/06 12:07:51;;;;;;;1.90;1.20;;;15.30;1.00;;;;;;6305382;22;20487;-43
2023/08/06 12:10:17;;;;;;;1.03;0.53;;;15.20;43.50;;;;;;6306118;22;20440;-43
2023/08/06 12:12:42;;;;;;;1.43;0.60;;;15.20;1.00;;;;;;6307818;22;20386;-45
2023/08/06 12:15:09;;;;;;;2.40;0.80;;;15.10;8.40;;;;;;6278323;22;20371;-44
2023/08/06 12:17:35;;;;;;;1.13;0.73;;;15.00;93.80;;;;;;6306220;22;20132;-44
2023/08/06 12:20:05;;;;;;;1.50;0.83;;;14.80;99.90;;;;;;6305874;22;20695;-47
2023/08/06 12:22:34;;;;;;;1.00;0.50;;;14.60;99.90;;;;;;6308806;22;20389;-45
2023/08/06 12:25:18;;;;;;;1.27;0.70;;;14.60;1.00;;;;;;6308787;22;20804;-44
2023/08/06 12:27:45;;;;;;;1.63;0.97;;;14.90;99.90;;;;;;6307589;22;20386;-46
2023/08/06 12:30:12;;;;;;;1.20;0.70;;;14.90;99.90;;;;;;6308930;22;20418;-46
2023/08/06 12:32:38;;;;;;;1.57;0.97;;;15.10;48.50;;;;;;6280473;22;20362;-45
2023/08/06 12:35:07;;;;;;;1.80;1.00;;;15.10;47.90;;;;;;6307109;22;20374;-43
2023/08/06 12:37:32;;;;;;;1.10;0.77;;;15.00;99.90;;;;;;6307535;22;20404;-45
2023/08/06 12:39:58;;;;;;;1.10;0.90;;;14.90;99.90;;;;;;6308383;22;20481;-45
2023/08/06 12:42:24;;;;;;;0.97;0.63;;;14.80;99.90;;;;;;6308530;22;20435;-44
2023/08/06 12:44:49;;;;;;;1.50;0.80;;;14.70;99.90;;;;;;6280761;22;20132;-43
2023/08/06 12:47:16;;;;;;;1.13;0.60;;;14.70;1.00;;;;;;6307077;22;20428;-44
2023/08/06 12:49:42;;;;;;;1.10;0.67;;;14.80;99.90;;;;;;6307654;22;20172;-43